createdAt,value
2018-04-11T00:00:19.300Z,46.20
2018-04-11T00:03:21.794Z,52.80
2018-04-11T00:06:24.265Z,50.90
2018-04-11T00:09:26.788Z,50.03
2018-04-11T00:12:29.354Z,60.10
2018-04-11T00:15:31.896Z,58.93
2018-04-11T00:18:34.434Z,51.10
2018-04-11T00:21:36.909Z,55.00
2018-04-11T00:24:39.503Z,51.23
2018-04-11T00:27:42.017Z,51.90
2018-04-11T00:30:44.495Z,48.37
2018-04-11T00:33:47.004Z,46.13
2018-04-11T00:36:49.648Z,53.97
2018-04-11T00:39:52.192Z,54.13
2018-04-11T00:42:54.662Z,53.20
2018-04-11T00:45:57.233Z,49.70
2018-04-11T00:48:59.749Z,49.20
2018-04-11T00:52:02.250Z,52.80
2018-04-11T00:55:04.751Z,50.67
2018-04-11T00:58:07.288Z,51.70
2018-04-11T01:01:09.809Z,51.60
2018-04-11T01:04:12.350Z,53.03
2018-04-11T01:07:14.866Z,55.83
2018-04-11T01:10:17.376Z,53.57
2018-04-11T01:13:19.989Z,54.53
2018-04-11T01:16:22.479Z,52.37
2018-04-11T01:19:24.940Z,53.73
2018-04-11T01:22:27.435Z,52.10
2018-04-11T01:25:29.929Z,50.13
2018-04-11T01:28:32.489Z,49.03
2018-04-11T01:31:34.967Z,50.07
2018-04-11T01:34:37.462Z,46.67
2018-04-11T01:37:39.965Z,50.93
2018-04-11T01:40:42.469Z,59.20
2018-04-11T01:43:44.959Z,51.57
2018-04-11T01:46:47.425Z,61.73
2018-04-11T01:49:49.919Z,45.60
2018-04-11T01:52:52.484Z,53.27
2018-04-11T01:55:55.000Z,55.10
2018-04-11T01:58:57.455Z,53.17
2018-04-11T02:01:59.936Z,52.57
2018-04-11T02:05:02.428Z,52.13
2018-04-11T02:08:04.926Z,50.83
2018-04-11T02:11:07.391Z,54.73
2018-04-11T02:14:09.873Z,55.20
2018-04-11T02:17:12.372Z,51.90
2018-04-11T02:20:14.933Z,52.87
2018-04-11T02:23:17.392Z,55.80
2018-04-11T02:26:19.887Z,48.00
2018-04-11T02:29:22.352Z,52.80
2018-04-11T02:32:24.879Z,55.53
2018-04-11T02:35:27.339Z,59.10
2018-04-11T02:38:30.248Z,50.83
2018-04-11T02:41:32.698Z,57.10
2018-04-11T02:44:35.237Z,50.47
2018-04-11T02:47:37.792Z,55.73
2018-04-11T02:50:40.240Z,52.30
2018-04-11T02:53:42.823Z,52.50
2018-04-11T02:56:45.292Z,55.83
2018-04-11T02:59:47.792Z,57.37
2018-04-11T03:02:50.297Z,47.50
2018-04-11T03:05:52.772Z,55.60
2018-04-11T03:08:55.331Z,55.23
2018-04-11T03:11:57.787Z,51.23
2018-04-11T03:15:00.298Z,55.13
2018-04-11T03:18:02.922Z,56.10
2018-04-11T03:21:05.427Z,50.47
2018-04-11T03:24:07.916Z,54.67
2018-04-11T03:27:10.403Z,50.17
2018-04-11T03:30:12.960Z,52.83
2018-04-11T03:33:15.518Z,53.33
2018-04-11T03:36:18.020Z,62.13
2018-04-11T03:39:20.649Z,60.43
2018-04-11T03:42:23.145Z,65.00
2018-04-11T03:45:25.610Z,56.40
2018-04-11T03:48:28.113Z,59.13
2018-04-11T03:51:30.593Z,65.67
2018-04-11T03:54:33.093Z,59.40
2018-04-11T03:57:35.612Z,63.83
2018-04-11T04:00:38.102Z,63.60
2018-04-11T04:03:40.638Z,58.87
2018-04-11T04:06:43.205Z,66.77
2018-04-11T04:09:45.656Z,62.17
2018-04-11T04:12:48.186Z,66.67
2018-04-11T04:16:02.550Z,59.70
2018-04-11T04:19:17.009Z,59.40
2018-04-11T04:22:19.552Z,67.70
2018-04-11T04:25:22.023Z,59.47
2018-04-11T04:28:24.574Z,63.23
2018-04-11T04:31:27.141Z,67.23
2018-04-11T04:34:29.657Z,62.90
2018-04-11T04:37:32.169Z,66.77
2018-04-11T04:40:34.722Z,65.50
2018-04-11T04:43:37.253Z,68.13
2018-04-11T04:46:39.751Z,67.23
2018-04-11T04:49:42.237Z,71.87
2018-04-11T04:52:44.737Z,67.03
2018-04-11T04:55:47.197Z,63.40
2018-04-11T04:58:49.725Z,67.43
2018-04-11T05:01:52.253Z,64.67
2018-04-11T05:04:54.816Z,62.47
2018-04-11T05:07:57.320Z,62.57
2018-04-11T05:10:59.805Z,71.53
2018-04-11T05:14:02.302Z,53.60
2018-04-11T05:17:04.782Z,59.03
2018-04-11T05:20:07.356Z,60.37
2018-04-11T05:23:09.919Z,52.53
2018-04-11T05:26:12.376Z,54.57
2018-04-11T05:29:14.910Z,52.00
2018-04-11T05:32:17.398Z,56.67
2018-04-11T05:35:19.939Z,52.40
2018-04-11T05:38:22.495Z,54.97
2018-04-11T05:41:25.160Z,52.70
2018-04-11T05:44:27.725Z,55.73
2018-04-11T05:47:30.281Z,51.13
2018-04-11T05:50:32.807Z,45.53
2018-04-11T05:53:35.304Z,53.07
2018-04-11T05:56:37.792Z,47.87
2018-04-11T05:59:41.579Z,54.63
2018-04-11T06:02:44.129Z,52.50
2018-04-11T06:05:46.652Z,53.23
2018-04-11T06:08:49.251Z,51.47
2018-04-11T06:11:51.820Z,53.60
2018-04-11T06:14:54.465Z,57.10
2018-04-11T06:17:56.945Z,49.40
2018-04-11T06:20:59.483Z,52.23
2018-04-11T06:24:01.989Z,51.77
2018-04-11T06:27:04.496Z,53.20
2018-04-11T06:30:06.973Z,56.10
2018-04-11T06:33:09.540Z,50.40
2018-04-11T06:36:12.025Z,51.73
2018-04-11T06:39:14.570Z,49.63
2018-04-11T06:42:17.059Z,50.33
2018-04-11T06:45:19.519Z,58.73
2018-04-11T06:48:22.016Z,55.30
2018-04-11T06:51:24.679Z,60.80
2018-04-11T06:54:27.142Z,61.67
2018-04-11T06:57:29.844Z,67.93
2018-04-11T07:00:32.341Z,59.53
2018-04-11T07:03:34.826Z,57.47
2018-04-11T07:06:37.340Z,63.83
2018-04-11T07:09:39.841Z,55.00
2018-04-11T07:12:42.369Z,59.20
2018-04-11T07:15:44.895Z,56.63
2018-04-11T07:18:47.434Z,61.30
2018-04-11T07:21:50.041Z,60.90
2018-04-11T07:24:52.546Z,57.57
2018-04-11T07:27:55.079Z,58.90
2018-04-11T07:30:57.581Z,61.10
2018-04-11T07:34:00.112Z,66.00
2018-04-11T07:37:02.606Z,61.10
2018-04-11T07:40:05.145Z,64.60
2018-04-11T07:43:07.636Z,60.00
2018-04-11T07:46:10.192Z,63.10
2018-04-11T07:49:12.805Z,70.13
2018-04-11T07:52:15.358Z,65.83
2018-04-11T07:55:17.819Z,60.47
2018-04-11T07:58:20.360Z,55.70
2018-04-11T08:01:22.895Z,57.87
2018-04-11T08:04:25.512Z,62.13
2018-04-11T08:07:28.022Z,58.93
2018-04-11T08:10:30.532Z,60.93
2018-04-11T08:13:33.045Z,56.90
2018-04-11T08:16:35.541Z,58.73
2018-04-11T08:19:37.990Z,58.07
2018-04-11T08:22:40.575Z,57.47
2018-04-11T08:25:43.096Z,56.50
2018-04-11T08:28:45.620Z,57.93
2018-04-11T08:31:48.116Z,57.27
2018-04-11T08:34:50.639Z,53.67
2018-04-11T08:37:53.150Z,55.40
2018-04-11T08:40:55.652Z,55.10
2018-04-11T08:43:58.172Z,62.13
2018-04-11T08:47:00.710Z,57.77
2018-04-11T08:50:03.212Z,53.83
2018-04-11T08:53:05.751Z,56.80
2018-04-11T08:56:08.256Z,53.57
2018-04-11T08:59:10.891Z,61.17
2018-04-11T09:02:13.416Z,57.63
2018-04-11T09:05:15.947Z,59.73
2018-04-11T09:08:18.451Z,58.67
2018-04-11T09:11:21.072Z,63.47
2018-04-11T09:14:23.656Z,56.80
2018-04-11T09:17:26.171Z,59.63
2018-04-11T09:20:28.662Z,55.73
2018-04-11T09:23:31.156Z,57.87
2018-04-11T09:26:33.753Z,62.10
2018-04-11T09:29:36.371Z,57.53
2018-04-11T09:32:38.922Z,65.50
2018-04-11T09:35:41.467Z,63.17
2018-04-11T09:38:43.985Z,62.90
2018-04-11T09:41:46.491Z,61.90
2018-04-11T09:44:49.168Z,61.27
2018-04-11T09:47:51.688Z,67.47
2018-04-11T09:50:54.188Z,61.43
2018-04-11T09:53:56.731Z,64.20
2018-04-11T09:56:59.243Z,59.60
2018-04-11T10:00:01.827Z,63.30
2018-04-11T10:03:06.074Z,64.93
2018-04-11T10:06:08.647Z,65.80
2018-04-11T10:09:11.132Z,65.63
2018-04-11T10:12:13.643Z,66.20
2018-04-11T10:15:16.231Z,72.60
2018-04-11T10:18:18.731Z,62.33
2018-04-11T10:21:21.247Z,69.83
2018-04-11T10:24:23.776Z,67.30
2018-04-11T10:27:26.257Z,68.40
2018-04-11T10:30:28.793Z,67.97
2018-04-11T10:33:31.301Z,64.73
2018-04-11T10:36:33.867Z,67.17
2018-04-11T10:39:36.318Z,63.93
2018-04-11T10:42:38.812Z,66.27
2018-04-11T10:45:41.282Z,66.17
2018-04-11T10:48:43.825Z,61.37
2018-04-11T10:51:46.321Z,68.47
2018-04-11T10:54:48.832Z,64.67
2018-04-11T10:57:51.353Z,66.93
2018-04-11T11:00:53.913Z,59.53
2018-04-11T11:03:56.432Z,62.33
2018-04-11T11:06:58.907Z,73.03
2018-04-11T11:10:01.431Z,56.80
2018-04-11T11:13:03.992Z,63.43
2018-04-11T11:16:06.560Z,57.70
2018-04-11T11:19:09.074Z,62.27
2018-04-11T11:22:11.560Z,65.80
2018-04-11T11:25:14.108Z,57.43
2018-04-11T11:28:16.627Z,61.87
2018-04-11T11:31:19.144Z,53.27
2018-04-11T11:34:21.730Z,53.73
2018-04-11T11:37:24.218Z,57.37
2018-04-11T11:40:26.793Z,53.57
2018-04-11T11:43:29.318Z,54.60
2018-04-11T11:46:31.798Z,64.40
2018-04-11T11:49:34.316Z,59.83
2018-04-11T11:52:36.833Z,58.43
2018-04-11T11:55:39.379Z,60.40
2018-04-11T11:58:41.884Z,58.67
2018-04-11T12:01:44.337Z,62.43
2018-04-11T12:04:46.968Z,59.03
2018-04-11T12:07:49.468Z,60.60
2018-04-11T12:10:51.959Z,59.60
2018-04-11T12:13:54.560Z,64.57
2018-04-11T12:16:57.094Z,61.17
2018-04-11T12:19:59.582Z,65.63
2018-04-11T12:23:02.123Z,57.47
2018-04-11T12:26:04.623Z,62.80
2018-04-11T12:29:07.259Z,59.00
2018-04-11T12:32:09.769Z,56.03
2018-04-11T12:35:12.298Z,56.27
2018-04-11T12:38:14.803Z,56.50
2018-04-11T12:41:17.396Z,56.80
2018-04-11T12:44:19.921Z,57.50
2018-04-11T12:47:22.409Z,57.77
2018-04-11T12:50:24.908Z,62.33
2018-04-11T12:53:27.413Z,62.90
2018-04-11T12:56:29.894Z,64.63
2018-04-11T12:59:32.469Z,63.43
2018-04-11T13:02:35.032Z,63.87
2018-04-11T13:05:37.522Z,63.00
2018-04-11T13:08:40.038Z,64.43
2018-04-11T13:11:42.612Z,59.30
2018-04-11T13:14:45.081Z,63.07
2018-04-11T13:17:47.609Z,63.90
2018-04-11T13:20:50.110Z,63.40
2018-04-11T13:23:52.576Z,70.23
2018-04-11T13:26:55.120Z,71.90
2018-04-11T13:29:57.654Z,62.60
2018-04-11T13:33:00.190Z,64.53
2018-04-11T13:36:02.741Z,67.67
2018-04-11T13:39:05.479Z,69.87
2018-04-11T13:42:07.980Z,70.77
2018-04-11T13:45:10.524Z,76.20
2018-04-11T13:48:12.991Z,67.07
2018-04-11T13:51:15.521Z,69.87
2018-04-11T13:54:18.037Z,66.97
2018-04-11T13:57:20.654Z,62.67
2018-04-11T14:00:23.191Z,59.50
2018-04-11T14:07:03.337Z,58.17
2018-04-11T14:10:05.817Z,56.50
2018-04-11T14:13:08.327Z,60.57
2018-04-11T14:16:10.870Z,62.87
2018-04-11T14:19:13.372Z,64.17
2018-04-11T14:22:15.959Z,65.00
2018-04-11T14:25:18.548Z,69.13
2018-04-11T14:28:21.014Z,74.13
2018-04-11T14:31:23.580Z,76.50
2018-04-11T14:34:26.051Z,70.80
2018-04-11T14:37:28.552Z,69.50
2018-04-11T14:40:31.062Z,73.60
2018-04-11T14:43:33.577Z,63.13
2018-04-11T14:46:36.121Z,67.83
2018-04-11T14:49:38.622Z,70.20
2018-04-11T14:52:41.074Z,65.13
2018-04-11T14:55:43.555Z,64.83
2018-04-11T14:58:46.058Z,66.57
2018-04-11T15:01:48.580Z,72.30
2018-04-11T15:04:51.134Z,71.90
2018-04-11T15:07:53.622Z,67.50
2018-04-11T15:10:56.141Z,66.60
2018-04-11T15:13:58.621Z,83.13
2018-04-11T15:17:01.115Z,68.80
2018-04-11T15:20:03.678Z,75.13
2018-04-11T15:23:06.158Z,74.30
2018-04-11T15:26:08.684Z,79.27
2018-04-11T15:29:11.186Z,79.83
2018-04-11T15:32:13.697Z,74.53
2018-04-11T15:35:16.245Z,80.50
2018-04-11T15:38:18.743Z,78.03
2018-04-11T15:41:21.212Z,80.90
2018-04-11T15:44:23.736Z,73.93
2018-04-11T15:47:26.263Z,78.10
2018-04-11T15:50:28.775Z,72.23
2018-04-11T15:53:31.328Z,71.40
2018-04-11T15:56:33.842Z,74.83
2018-04-11T15:59:36.335Z,72.33
2018-04-11T16:02:38.852Z,72.73
2018-04-11T16:05:41.327Z,73.00
2018-04-11T16:08:43.851Z,79.70
2018-04-11T16:11:46.403Z,78.30
2018-04-11T16:14:48.908Z,73.97
2018-04-11T16:17:51.397Z,78.10
2018-04-11T16:20:53.890Z,72.40
2018-04-11T16:23:56.396Z,70.83
2018-04-11T16:26:58.919Z,71.50
2018-04-11T16:30:01.429Z,73.47
2018-04-11T16:33:03.937Z,75.63
2018-04-11T16:36:06.442Z,68.07
2018-04-11T16:39:08.964Z,70.73
2018-04-11T16:42:11.485Z,66.83
2018-04-11T16:45:14.020Z,63.40
2018-04-11T16:48:17.002Z,70.23
2018-04-11T16:51:19.556Z,61.97
2018-04-11T16:54:22.015Z,67.07
2018-04-11T16:57:24.531Z,64.97
2018-04-11T17:00:26.993Z,71.43
2018-04-11T17:03:29.679Z,66.93
2018-04-11T17:06:32.212Z,70.40
2018-04-11T17:09:34.752Z,66.10
2018-04-11T17:12:37.193Z,63.70
2018-04-11T17:15:39.716Z,63.03
2018-04-11T17:18:42.259Z,63.07
2018-04-11T17:21:57.754Z,61.53
2018-04-11T17:25:12.068Z,68.50
2018-04-11T17:32:03.704Z,63.17
2018-04-11T17:35:06.237Z,65.37
2018-04-11T17:38:08.776Z,71.43
2018-04-11T17:41:11.277Z,69.70
2018-04-11T17:44:13.865Z,74.90
2018-04-11T17:47:16.518Z,66.70
2018-04-11T17:50:19.006Z,55.43
2018-04-11T17:53:21.492Z,51.23
2018-04-11T17:56:24.023Z,45.93
2018-04-11T17:59:26.510Z,46.40
2018-04-11T18:02:29.084Z,42.50
2018-04-11T18:05:31.583Z,43.50
2018-04-11T18:08:34.116Z,44.93
2018-04-11T18:11:36.655Z,44.23
2018-04-11T18:14:39.185Z,47.33
2018-04-11T18:17:41.664Z,45.53
2018-04-11T18:20:44.188Z,46.90
2018-04-11T18:23:46.731Z,48.90
2018-04-11T18:26:49.319Z,48.43
2018-04-11T18:29:51.956Z,51.77
2018-04-11T18:32:54.555Z,51.47
2018-04-11T18:35:57.101Z,52.20
2018-04-11T18:38:59.651Z,53.77
2018-04-11T18:42:02.183Z,55.00
2018-04-11T18:45:04.748Z,53.00
2018-04-11T18:48:07.282Z,52.03
2018-04-11T18:51:09.808Z,57.03
2018-04-11T18:54:12.339Z,56.13
2018-04-11T18:57:14.953Z,57.27
2018-04-11T19:00:17.614Z,68.83
2018-04-11T19:03:20.165Z,59.20
2018-04-11T19:06:22.707Z,61.03
2018-04-11T19:09:25.250Z,58.83
2018-04-11T19:12:27.942Z,54.70
2018-04-11T19:15:30.614Z,55.90
2018-04-11T19:18:33.131Z,57.50
2018-04-11T19:21:35.667Z,55.93
2018-04-11T19:24:38.173Z,53.97
2018-04-11T19:27:40.654Z,54.80
2018-04-11T19:30:43.175Z,56.33
2018-04-11T19:33:45.706Z,55.10
2018-04-11T19:36:48.184Z,57.33
2018-04-11T19:39:50.705Z,52.63
2018-04-11T19:42:53.216Z,54.77
2018-04-11T19:45:55.728Z,53.87
2018-04-11T19:48:58.300Z,54.57
2018-04-11T19:52:00.803Z,53.63
2018-04-11T19:55:03.307Z,56.03
2018-04-11T19:58:05.917Z,55.70
2018-04-11T20:01:08.454Z,53.30
2018-04-11T20:04:10.994Z,55.70
2018-04-11T20:07:13.468Z,53.40
2018-04-11T20:10:16.041Z,54.20
2018-04-11T20:13:18.607Z,50.87
2018-04-11T20:16:21.109Z,56.33
2018-04-11T20:19:23.626Z,53.33
2018-04-11T20:22:26.146Z,56.10
2018-04-11T20:25:28.685Z,60.33
2018-04-11T20:28:32.105Z,59.40
2018-04-11T20:31:34.676Z,66.87
2018-04-11T20:34:37.199Z,61.30
2018-04-11T20:37:39.779Z,62.00
2018-04-11T20:40:42.229Z,62.97
2018-04-11T20:43:44.740Z,65.07
2018-04-11T20:46:47.247Z,68.23
2018-04-11T20:49:49.756Z,69.40
2018-04-11T20:52:52.234Z,65.63
2018-04-11T20:55:54.784Z,65.83
2018-04-11T20:58:57.303Z,66.20
2018-04-11T21:01:59.838Z,66.90
2018-04-11T21:05:02.309Z,63.40
2018-04-11T21:08:04.833Z,59.50
2018-04-11T21:11:07.775Z,64.27
2018-04-11T21:14:10.292Z,65.93
2018-04-11T21:17:12.766Z,63.73
2018-04-11T21:20:15.306Z,58.63
2018-04-11T21:23:17.809Z,68.60
2018-04-11T21:26:20.322Z,59.20
2018-04-11T21:29:22.924Z,57.20
2018-04-11T21:32:25.476Z,52.13
2018-04-11T21:35:27.955Z,58.47
2018-04-11T21:38:30.461Z,55.60
2018-04-11T21:41:32.997Z,61.13
2018-04-11T21:44:35.539Z,62.73
2018-04-11T21:47:38.036Z,57.70
2018-04-11T21:50:40.577Z,66.53
2018-04-11T21:53:43.046Z,61.63
2018-04-11T21:56:45.556Z,64.87
2018-04-11T21:59:48.022Z,63.57
2018-04-11T22:02:50.536Z,62.90
2018-04-11T22:05:53.046Z,60.83
2018-04-11T22:08:55.529Z,73.17
2018-04-11T22:11:58.015Z,68.10
2018-04-11T22:15:00.504Z,69.10
2018-04-11T22:18:03.057Z,71.40
2018-04-11T22:21:05.528Z,69.57
2018-04-11T22:24:08.030Z,74.93
2018-04-11T22:27:10.505Z,75.67
2018-04-11T22:30:13.001Z,67.70
2018-04-11T22:33:15.492Z,64.97
2018-04-11T22:36:18.003Z,72.73
2018-04-11T22:39:20.543Z,78.87
2018-04-11T22:42:23.042Z,67.20
2018-04-11T22:45:25.797Z,72.50
2018-04-11T22:48:28.387Z,70.90
2018-04-11T22:51:30.878Z,67.53
2018-04-11T22:54:33.405Z,72.00
2018-04-11T22:57:35.939Z,76.37
2018-04-11T23:00:38.462Z,84.47
2018-04-11T23:03:40.960Z,80.87
2018-04-11T23:06:43.450Z,88.73
2018-04-11T23:09:45.971Z,82.70
2018-04-11T23:12:48.453Z,81.40
2018-04-11T23:15:50.936Z,78.80
2018-04-11T23:18:53.490Z,87.87
2018-04-11T23:21:55.936Z,94.43
2018-04-11T23:24:58.441Z,86.53
2018-04-11T23:28:00.976Z,95.70
2018-04-11T23:31:03.470Z,85.20
2018-04-11T23:34:05.940Z,86.43
2018-04-11T23:37:08.491Z,100.43
2018-04-11T23:40:11.001Z,96.60
2018-04-11T23:43:13.476Z,91.07
2018-04-11T23:46:16.006Z,102.40
2018-04-11T23:49:18.545Z,108.27
2018-04-11T23:52:21.021Z,106.80
2018-04-11T23:55:23.540Z,108.10
2018-04-11T23:58:26.033Z,101.97
